Time;durP1;ratioP1;P1;durP2;ratioP2;P2;SDS_P1;SDS_P2;PMS_P1;PMS_P2;Temp;Humidity;BMP_temperature;BMP_pressure;BME280_temperature;BME280_humidity;BME280_pressure;Samples;Min_cycle;Max_cycle;Signal;HPM_P1;HPM_P2
2022/09/12 00:02:12;;;;;;;;;;;;;;;25.81;44.49;100237.12;104424;1311;61316;-83
2022/09/12 00:04:37;;;;;;;;;;;;;;;25.81;44.67;100237.73;104432;1311;61306;-83
2022/09/12 00:07:04;;;;;;;;;;;;;;;25.81;44.76;100242.23;104406;1311;61308;-82
2022/09/12 00:09:30;;;;;;;;;;;;;;;25.81;44.59;100246.52;104404;1311;61384;-84
2022/09/12 00:11:56;;;;;;;;;;;;;;;25.81;44.54;100249.99;104488;1311;61307;-82
2022/09/12 00:14:21;;;;;;;;;;;;;;;25.81;44.65;100256.15;104519;1310;61405;-82
2022/09/12 00:16:47;;;;;;;;;;;;;;;25.81;44.75;100251.45;104437;1311;61295;-84
2022/09/12 00:19:12;;;;;;;;;;;;;;;25.81;44.66;100253.41;104501;1310;61279;-83
2022/09/12 00:21:38;;;;;;;;;;;;;;;25.80;44.62;100256.37;104560;1308;61289;-84
2022/09/12 00:24:03;;;;;;;;;;;;;;;25.80;44.75;100259.05;104507;1310;61318;-84
2022/09/12 00:26:29;;;;;;;;;;;;;;;25.80;44.82;100254.19;104545;1309;61452;-84
2022/09/12 00:28:54;;;;;;;;;;;;;;;25.80;44.62;100250.09;104649;1309;61262;-83
2022/09/12 00:31:22;;;;;;;;;;;;;;;25.80;44.82;100248.49;104475;1309;61323;-84
2022/09/12 00:33:48;;;;;;;;;;;;;;;25.80;44.72;100241.97;104457;1309;61280;-83
2022/09/12 00:36:14;;;;;;;;;;;;;;;25.80;44.81;100242.12;104471;1309;61280;-83
2022/09/12 00:38:40;;;;;;;;;;;;;;;25.80;44.75;100242.88;104587;1309;61276;-82
2022/09/12 00:41:06;;;;;;;;;;;;;;;25.80;44.74;100237.13;104492;1310;61318;-84
2022/09/12 00:43:35;;;;;;;;;;;;;;;25.80;44.56;100237.05;104526;1309;61358;-84
2022/09/12 00:46:23;;;;;;;;;;;;;;;25.80;44.66;100237.65;104601;1309;61352;-84
2022/09/12 00:48:49;;;;;;;;;;;;;;;25.80;44.67;100235.46;104572;1309;61400;-84
2022/09/12 00:51:15;;;;;;;;;;;;;;;25.80;44.68;100229.86;104479;1309;61282;-83
2022/09/12 00:53:40;;;;;;;;;;;;;;;25.80;44.84;100228.09;104469;1309;61252;-83
2022/09/12 00:56:06;;;;;;;;;;;;;;;25.80;44.63;100228.66;104428;1311;61308;-83
2022/09/12 00:58:35;;;;;;;;;;;;;;;25.79;44.88;100223.27;104436;1311;61318;-83
2022/09/12 01:01:00;;;;;;;;;;;;;;;25.79;44.58;100225.28;104481;1309;61345;-83
2022/09/12 01:03:26;;;;;;;;;;;;;;;25.79;44.64;100223.65;104496;1309;61397;-83
2022/09/12 01:06:17;;;;;;;;;;;;;;;25.79;44.64;100224.55;104444;1311;61309;-83
2022/09/12 01:08:43;;;;;;;;;;;;;;;25.79;44.72;100220.44;104570;1308;61152;-83
2022/09/12 01:11:09;;;;;;;;;;;;;;;25.79;44.70;100225.27;104451;1309;61284;-81
2022/09/12 01:13:35;;;;;;;;;;;;;;;25.79;44.72;100228.18;104465;1309;61237;-82
2022/09/12 01:16:04;;;;;;;;;;;;;;;25.79;44.65;100230.34;104429;1310;61346;-82
2022/09/12 01:18:49;;;;;;;;;;;;;;;25.79;44.68;100233.21;104477;1309;61313;-83
2022/09/12 01:21:17;;;;;;;;;;;;;;;25.79;44.78;100229.06;104421;1309;72891;-83
2022/09/12 01:24:01;;;;;;;;;;;;;;;25.79;44.69;100229.09;104584;1308;74850;-84
2022/09/12 01:26:26;;;;;;;;;;;;;;;25.78;44.64;100229.85;104423;1311;61279;-83
2022/09/12 01:29:00;;;;;;;;;;;;;;;25.78;44.81;100228.95;104475;1309;61290;-83
2022/09/12 01:31:55;;;;;;;;;;;;;;;25.78;44.88;100225.71;104528;1309;73925;-85
2022/09/12 01:34:26;;;;;;;;;;;;;;;25.79;44.82;100225.52;104216;1315;74766;-83
2022/09/12 01:36:52;;;;;;;;;;;;;;;25.78;44.72;100224.83;104258;1315;62045;-84
2022/09/12 01:39:20;;;;;;;;;;;;;;;25.78;44.87;100221.23;104240;1315;61291;-82
2022/09/12 01:41:49;;;;;;;;;;;;;;;25.78;44.78;100218.55;104204;1315;72854;-83
2022/09/12 01:44:33;;;;;;;;;;;;;;;25.78;44.73;100221.75;104244;1314;75025;-81
2022/09/12 01:47:01;;;;;;;;;;;;;;;25.78;44.74;100222.70;104183;1316;61164;-83
2022/09/12 01:49:45;;;;;;;;;;;;;;;25.78;44.68;100229.36;104229;1316;61203;-83
2022/09/12 01:52:19;;;;;;;;;;;;;;;25.78;44.69;100233.71;104175;1316;72131;-83
2022/09/12 01:54:55;;;;;;;;;;;;;;;25.78;44.77;100234.63;103952;1317;74812;-84
2022/09/12 01:57:23;;;;;;;;;;;;;;;25.78;44.65;100235.67;103937;1317;61500;-83
2022/09/12 01:59:50;;;;;;;;;;;;;;;25.77;44.79;100234.65;104095;1317;61313;-84
2022/09/12 02:02:17;;;;;;;;;;;;;;;25.77;44.75;100234.28;103963;1318;74612;-83
2022/09/12 02:04:47;;;;;;;;;;;;;;;25.77;44.71;100232.18;104169;1315;74206;-83
2022/09/12 02:07:14;;;;;;;;;;;;;;;25.77;44.52;100233.26;104237;1315;61268;-85
2022/09/12 02:09:42;;;;;;;;;;;;;;;25.76;44.61;100232.21;104259;1314;61428;-83
2022/09/12 02:12:07;;;;;;;;;;;;;;;25.76;44.75;100233.84;104411;1309;72674;-83
2022/09/12 02:14:35;;;;;;;;;;;;;;;25.77;44.66;100237.02;104494;1309;61442;-84
2022/09/12 02:17:03;;;;;;;;;;;;;;;25.76;44.67;100236.02;104489;1309;61196;-84
2022/09/12 02:19:30;;;;;;;;;;;;;;;25.77;44.65;100228.75;104485;1312;61435;-85
2022/09/12 02:21:57;;;;;;;;;;;;;;;25.76;44.78;100227.23;104547;1309;72692;-84
2022/09/12 02:24:38;;;;;;;;;;;;;;;25.76;44.64;100219.98;104486;1309;75162;-84
2022/09/12 02:27:23;;;;;;;;;;;;;;;25.76;44.71;100213.89;104576;1309;61429;-85
2022/09/12 02:29:48;;;;;;;;;;;;;;;25.75;44.68;100217.67;104493;1309;61157;-84
2022/09/12 02:32:23;;;;;;;;;;;;;;;25.76;44.78;100216.23;104466;1310;61449;-84
2022/09/12 02:34:54;;;;;;;;;;;;;;;25.75;44.71;100216.42;104484;1309;74055;-80
2022/09/12 02:37:52;;;;;;;;;;;;;;;25.75;44.75;100217.51;104569;1309;61199;-83
2022/09/12 02:40:17;;;;;;;;;;;;;;;25.75;44.82;100214.66;104356;1309;61380;-84
2022/09/12 02:42:43;;;;;;;;;;;;;;;25.75;44.73;100216.48;104407;1309;61346;-82
2022/09/12 02:45:08;;;;;;;;;;;;;;;25.75;44.89;100219.73;104423;1308;61337;-82
2022/09/12 02:47:38;;;;;;;;;;;;;;;25.75;44.79;100221.92;104481;1309;61251;-82
2022/09/12 02:50:04;;;;;;;;;;;;;;;25.75;44.84;100228.21;104467;1309;61191;-83
2022/09/12 02:52:29;;;;;;;;;;;;;;;25.74;44.57;100230.59;104565;1309;61395;-80
2022/09/12 02:54:55;;;;;;;;;;;;;;;25.74;44.56;100233.51;104491;1308;61273;-84
2022/09/12 02:57:21;;;;;;;;;;;;;;;25.74;44.61;100238.91;104402;1309;61723;-84
2022/09/12 02:59:46;;;;;;;;;;;;;;;25.74;44.58;100242.02;104567;1308;61294;-83
2022/09/12 03:02:12;;;;;;;;;;;;;;;25.74;44.58;100240.40;104533;1309;61317;-83
2022/09/12 03:04:43;;;;;;;;;;;;;;;25.73;44.67;100242.27;104580;1309;61266;-84
2022/09/12 03:07:21;;;;;;;;;;;;;;;25.73;44.75;100241.73;104606;1308;74572;-84
2022/09/12 03:09:46;;;;;;;;;;;;;;;25.73;44.79;100244.80;104534;1309;61198;-84
2022/09/12 03:12:12;;;;;;;;;;;;;;;25.73;44.67;100244.94;104514;1308;61236;-84
2022/09/12 03:14:53;;;;;;;;;;;;;;;25.73;44.69;100250.05;104484;1309;61311;-82
2022/09/12 03:17:34;;;;;;;;;;;;;;;25.73;44.56;100253.30;104562;1309;74856;-83
2022/09/12 03:20:01;;;;;;;;;;;;;;;25.73;44.81;100256.53;104547;1308;61509;-83
2022/09/12 03:22:27;;;;;;;;;;;;;;;25.72;44.79;100257.65;104580;1308;61264;-82
2022/09/12 03:24:52;;;;;;;;;;;;;;;25.72;44.70;100253.73;104531;1308;61250;-82
2022/09/12 03:27:19;;;;;;;;;;;;;;;25.72;44.69;100256.63;104566;1309;61291;-83
2022/09/12 03:29:46;;;;;;;;;;;;;;;25.72;44.46;100253.41;104396;1309;61285;-82
2022/09/12 03:32:11;;;;;;;;;;;;;;;25.72;44.74;100253.75;104475;1309;61169;-82
2022/09/12 03:34:37;;;;;;;;;;;;;;;25.71;44.58;100257.95;104472;1309;61381;-83
2022/09/12 03:37:03;;;;;;;;;;;;;;;25.71;44.76;100259.05;104482;1309;61454;-83
2022/09/12 03:39:29;;;;;;;;;;;;;;;25.71;44.63;100258.48;104486;1309;61320;-84
2022/09/12 03:41:54;;;;;;;;;;;;;;;25.70;44.50;100255.91;104446;1308;61318;-85
2022/09/12 03:44:20;;;;;;;;;;;;;;;25.70;44.58;100254.35;104397;1309;61270;-81
2022/09/12 03:46:45;;;;;;;;;;;;;;;25.68;44.55;100251.60;104572;1309;61287;-80
2022/09/12 03:49:11;;;;;;;;;;;;;;;25.67;44.53;100254.96;104481;1309;61384;-83
2022/09/12 03:51:37;;;;;;;;;;;;;;;25.65;44.48;100253.52;104482;1309;61387;-83
2022/09/12 03:54:02;;;;;;;;;;;;;;;25.64;44.54;100258.36;104465;1309;61416;-83
2022/09/12 03:56:29;;;;;;;;;;;;;;;25.62;44.43;100259.03;104430;1308;60269;-83
2022/09/12 03:58:54;;;;;;;;;;;;;;;25.61;44.47;100261.48;104472;1309;61387;-84
2022/09/12 04:01:19;;;;;;;;;;;;;;;25.60;44.31;100259.26;104458;1311;61302;-84
2022/09/12 04:03:47;;;;;;;;;;;;;;;25.59;44.19;100260.77;104476;1309;61319;-83
2022/09/12 04:06:14;;;;;;;;;;;;;;;25.58;44.02;100260.92;104501;1309;61281;-80
2022/09/12 04:08:39;;;;;;;;;;;;;;;25.57;44.08;100262.97;104578;1309;61363;-83
2022/09/12 04:11:06;;;;;;;;;;;;;;;25.56;44.23;100261.95;104471;1309;61414;-83
2022/09/12 04:13:31;;;;;;;;;;;;;;;25.55;44.09;100265.68;104388;1312;61819;-82
2022/09/12 04:15:57;;;;;;;;;;;;;;;25.53;44.06;100264.42;104514;1309;61296;-84
2022/09/12 04:18:23;;;;;;;;;;;;;;;25.53;43.91;100261.80;104423;1309;61202;-84
2022/09/12 04:20:48;;;;;;;;;;;;;;;25.50;43.74;100261.27;104401;1309;61421;-82
2022/09/12 04:23:14;;;;;;;;;;;;;;;25.48;43.83;100264.90;104449;1309;61288;-83
2022/09/12 04:25:39;;;;;;;;;;;;;;;25.47;43.65;100265.19;104489;1309;61304;-84
2022/09/12 04:28:05;;;;;;;;;;;;;;;25.46;43.73;100265.53;104515;1309;62059;-84
2022/09/12 04:30:32;;;;;;;;;;;;;;;25.45;43.61;100265.96;104539;1309;61483;-83
2022/09/12 04:32:57;;;;;;;;;;;;;;;25.44;43.51;100271.67;104297;1309;73301;-82
2022/09/12 04:35:23;;;;;;;;;;;;;;;25.42;43.50;100270.88;104242;1309;61302;-83
2022/09/12 04:37:48;;;;;;;;;;;;;;;25.41;43.45;100273.21;104326;1309;61263;-82
2022/09/12 04:40:14;;;;;;;;;;;;;;;25.39;43.39;100270.64;104379;1308;61348;-82
2022/09/12 04:42:39;;;;;;;;;;;;;;;25.38;43.52;100276.38;104176;1311;61305;-82
2022/09/12 04:45:05;;;;;;;;;;;;;;;25.37;43.38;100277.55;104270;1309;71870;-83
2022/09/12 04:47:30;;;;;;;;;;;;;;;25.34;43.22;100275.09;104335;1308;61387;-83
2022/09/12 04:49:56;;;;;;;;;;;;;;;25.32;43.34;100277.45;104144;1309;61298;-83
2022/09/12 04:52:21;;;;;;;;;;;;;;;25.31;43.22;100280.80;104154;1309;59557;-81
2022/09/12 04:54:47;;;;;;;;;;;;;;;25.29;43.24;100282.11;104250;1309;60072;-81
2022/09/12 04:57:12;;;;;;;;;;;;;;;25.28;43.29;100285.56;104061;1311;73838;-81
2022/09/12 04:59:38;;;;;;;;;;;;;;;25.28;43.29;100291.74;104104;1309;61272;-81
2022/09/12 05:02:04;;;;;;;;;;;;;;;25.28;43.06;100302.66;104149;1311;61917;-81
2022/09/12 05:04:30;;;;;;;;;;;;;;;25.29;43.26;100304.25;104346;1309;61333;-81
2022/09/12 05:06:55;;;;;;;;;;;;;;;25.30;43.18;100302.20;104332;1309;61266;-83
2022/09/12 05:09:21;;;;;;;;;;;;;;;25.31;43.26;100301.71;104239;1309;59379;-83
2022/09/12 05:11:47;;;;;;;;;;;;;;;25.26;43.03;100302.17;104234;1309;76482;-82
2022/09/12 05:14:12;;;;;;;;;;;;;;;25.23;43.09;100304.98;104298;1308;61440;-82
2022/09/12 05:16:38;;;;;;;;;;;;;;;25.23;43.12;100305.64;104291;1309;61311;-82
2022/09/12 05:19:03;;;;;;;;;;;;;;;25.23;43.02;100297.02;104313;1309;59506;-82
2022/09/12 05:21:29;;;;;;;;;;;;;;;25.25;43.22;100293.98;104292;1309;61252;-82
2022/09/12 05:23:56;;;;;;;;;;;;;;;25.24;43.10;100294.36;104242;1309;61369;-82
2022/09/12 05:26:21;;;;;;;;;;;;;;;25.24;43.08;100286.33;104246;1309;61188;-80
2022/09/12 05:28:48;;;;;;;;;;;;;;;25.24;43.13;100289.17;104187;1309;61353;-83
2022/09/12 05:31:17;;;;;;;;;;;;;;;25.24;43.13;100292.08;104517;1309;61263;-82
2022/09/12 05:33:43;;;;;;;;;;;;;;;25.24;43.06;100292.27;104318;1308;75660;-82
2022/09/12 05:36:13;;;;;;;;;;;;;;;25.24;42.94;100293.72;104365;1309;61201;-80
2022/09/12 05:38:38;;;;;;;;;;;;;;;25.24;42.97;100293.52;104367;1309;61323;-81
2022/09/12 05:41:08;;;;;;;;;;;;;;;25.25;42.99;100292.91;104416;1309;61373;-82
2022/09/12 05:43:34;;;;;;;;;;;;;;;25.24;42.85;100291.13;104287;1309;74820;-82
2022/09/12 05:46:00;;;;;;;;;;;;;;;25.24;42.76;100288.13;104249;1309;59946;-82
2022/09/12 05:48:27;;;;;;;;;;;;;;;25.25;42.97;100293.63;104574;1309;61403;-80
2022/09/12 05:50:57;;;;;;;;;;;;;;;25.25;42.82;100293.02;104204;1311;61241;-79
2022/09/12 05:53:27;;;;;;;;;;;;;;;25.26;42.77;100294.60;104166;1311;75866;-81
2022/09/12 05:56:08;;;;;;;;;;;;;;;25.23;42.86;100298.67;104198;1309;61204;-81
2022/09/12 05:58:34;;;;;;;;;;;;;;;25.21;42.72;100302.44;103980;1311;61714;-82
2022/09/12 06:01:01;;;;;;;;;;;;;;;25.23;43.03;100301.92;103369;1309;63477;-82
2022/09/12 06:03:27;;;;;;;;;;;;;;;25.24;42.99;100303.08;103039;1309;61202;-81
2022/09/12 06:05:53;;;;;;;;;;;;;;;25.25;43.09;100304.96;104300;1309;62158;-82
2022/09/12 06:08:19;;;;;;;;;;;;;;;25.27;42.99;100307.67;104050;1311;61324;-82
2022/09/12 06:10:44;;;;;;;;;;;;;;;25.29;43.05;100307.44;104322;1308;61328;-82
2022/09/12 06:13:10;;;;;;;;;;;;;;;25.32;43.16;100311.34;104268;1309;61311;-81
2022/09/12 06:15:36;;;;;;;;;;;;;;;25.34;43.05;100316.76;104317;1309;61396;-81
2022/09/12 06:18:02;;;;;;;;;;;;;;;25.35;43.00;100314.83;104803;1310;61258;-83
2022/09/12 06:20:27;;;;;;;;;;;;;;;25.36;43.09;100316.16;104234;1309;61313;-81
2022/09/12 06:22:52;;;;;;;;;;;;;;;25.37;43.13;100319.51;104283;1309;61590;-81
2022/09/12 06:25:18;;;;;;;;;;;;;;;25.37;43.03;100318.99;104297;1309;60048;-82
2022/09/12 06:27:44;;;;;;;;;;;;;;;25.38;42.91;100315.30;104835;1309;59443;-82
2022/09/12 06:30:10;;;;;;;;;;;;;;;25.38;42.76;100319.23;104214;1311;61400;-82
2022/09/12 06:32:36;;;;;;;;;;;;;;;25.39;42.89;100320.21;104265;1307;61272;-80
2022/09/12 06:35:02;;;;;;;;;;;;;;;25.37;42.85;100317.73;104295;1309;59618;-81
2022/09/12 06:37:28;;;;;;;;;;;;;;;25.35;42.61;100317.30;104138;1311;61306;-82
2022/09/12 06:39:53;;;;;;;;;;;;;;;25.36;42.52;100318.36;104145;1309;61314;-81
2022/09/12 06:42:18;;;;;;;;;;;;;;;25.35;42.60;100318.79;104386;1308;61876;-81
2022/09/12 06:44:44;;;;;;;;;;;;;;;25.34;42.63;100321.06;104217;1309;61403;-81
2022/09/12 06:47:10;;;;;;;;;;;;;;;25.34;42.52;100317.59;104279;1309;59439;-82
2022/09/12 06:49:36;;;;;;;;;;;;;;;25.36;42.39;100317.48;104514;1311;61330;-81
2022/09/12 06:52:01;;;;;;;;;;;;;;;25.37;42.35;100313.06;104096;1309;61285;-82
2022/09/12 06:54:27;;;;;;;;;;;;;;;25.34;42.06;100315.83;103763;1309;61372;-81
2022/09/12 06:56:55;;;;;;;;;;;;;;;25.33;42.22;100314.69;103959;1309;60110;-83
2022/09/12 06:59:21;;;;;;;;;;;;;;;25.34;42.13;100313.69;103419;1311;61260;-81
2022/09/12 07:01:47;;;;;;;;;;;;;;;25.34;42.30;100315.66;103330;1309;61469;-81
2022/09/12 07:04:12;;;;;;;;;;;;;;;25.33;42.06;100315.04;103952;1309;59908;-82
2022/09/12 07:06:39;;;;;;;;;;;;;;;25.31;42.14;100314.27;104242;1311;61417;-82
2022/09/12 07:09:05;;;;;;;;;;;;;;;25.32;42.03;100316.60;104218;1311;73808;-81
2022/09/12 07:11:31;;;;;;;;;;;;;;;25.29;42.04;100318.06;104322;1309;61364;-82
2022/09/12 07:13:57;;;;;;;;;;;;;;;25.29;41.99;100315.91;104334;1309;61417;-82
2022/09/12 07:16:22;;;;;;;;;;;;;;;25.31;41.83;100319.13;104277;1311;60153;-82
2022/09/12 07:18:52;;;;;;;;;;;;;;;25.30;41.81;100315.34;104282;1309;61462;-81
2022/09/12 07:21:17;;;;;;;;;;;;;;;25.28;41.83;100319.44;104156;1312;74858;-82
2022/09/12 07:23:44;;;;;;;;;;;;;;;25.30;41.69;100316.25;104254;1310;61985;-81
2022/09/12 07:26:09;;;;;;;;;;;;;;;25.31;41.75;100316.80;104219;1309;61325;-84
2022/09/12 07:28:35;;;;;;;;;;;;;;;25.33;41.76;100315.17;104232;1309;60114;-83
2022/09/12 07:31:18;;;;;;;;;;;;;;;25.34;41.58;100315.48;104164;1310;61337;-81
2022/09/12 07:33:44;;;;;;;;;;;;;;;25.35;41.57;100317.70;104188;1310;61187;-81
2022/09/12 07:36:10;;;;;;;;;;;;;;;25.36;41.46;100315.33;104333;1309;61401;-82
2022/09/12 07:38:36;;;;;;;;;;;;;;;25.36;41.33;100317.11;104233;1309;61419;-81
2022/09/12 07:41:11;;;;;;;;;;;;;;;25.35;41.39;100311.23;104391;1309;60429;-82
2022/09/12 07:43:37;;;;;;;;;;;;;;;25.33;41.19;100311.20;104168;1311;61255;-81
2022/09/12 07:46:02;;;;;;;;;;;;;;;25.33;41.25;100308.30;104213;1308;61482;-81
2022/09/12 07:48:27;;;;;;;;;;;;;;;25.33;41.03;100310.14;104285;1309;62513;-82
2022/09/12 07:50:57;;;;;;;;;;;;;;;25.33;41.11;100310.30;104270;1309;61357;-82
2022/09/12 07:53:23;;;;;;;;;;;;;;;25.35;41.10;100310.14;104370;1310;60848;-82
2022/09/12 07:55:52;;;;;;;;;;;;;;;25.36;40.96;100309.17;104197;1308;61331;-80
2022/09/12 07:58:18;;;;;;;;;;;;;;;25.35;40.89;100307.23;104134;1309;72953;-82
2022/09/12 08:00:44;;;;;;;;;;;;;;;25.34;40.93;100310.25;104182;1308;61261;-81
2022/09/12 08:03:10;;;;;;;;;;;;;;;25.34;40.97;100308.77;104630;1309;59813;-82
2022/09/12 08:05:36;;;;;;;;;;;;;;;25.33;40.88;100304.58;104863;1310;59274;-82
2022/09/12 08:08:01;;;;;;;;;;;;;;;25.33;41.13;100306.02;104791;1309;59421;-82
2022/09/12 08:10:27;;;;;;;;;;;;;;;25.34;41.13;100296.40;104983;1308;59461;-82
2022/09/12 08:12:52;;;;;;;;;;;;;;;25.34;41.03;100296.91;105116;1308;59056;-81
2022/09/12 08:15:19;;;;;;;;;;;;;;;25.30;41.02;100295.45;105049;1308;59479;-81
2022/09/12 08:17:44;;;;;;;;;;;;;;;25.28;40.85;100291.73;104448;1309;61368;-82
2022/09/12 08:20:11;;;;;;;;;;;;;;;25.24;41.00;100290.84;104182;1308;59708;-82
2022/09/12 08:22:36;;;;;;;;;;;;;;;25.22;40.82;100286.14;104269;1308;61334;-82
2022/09/12 08:25:02;;;;;;;;;;;;;;;25.23;40.85;100292.02;104295;1308;61255;-82
2022/09/12 08:27:27;;;;;;;;;;;;;;;25.25;40.91;100285.44;104388;1308;61300;-81
2022/09/12 08:29:54;;;;;;;;;;;;;;;25.28;40.88;100279.66;104370;1309;61242;-82
2022/09/12 08:32:19;;;;;;;;;;;;;;;25.24;40.60;100279.80;104285;1309;73765;-82
2022/09/12 08:34:45;;;;;;;;;;;;;;;25.21;40.52;100275.31;104252;1309;61449;-82
2022/09/12 08:37:10;;;;;;;;;;;;;;;25.16;40.44;100273.13;104257;1308;59479;-82
2022/09/12 08:39:36;;;;;;;;;;;;;;;25.13;40.39;100269.06;104262;1309;61512;-81
2022/09/12 08:42:02;;;;;;;;;;;;;;;25.13;40.36;100271.71;104338;1308;61329;-82
2022/09/12 08:44:47;;;;;;;;;;;;;;;25.16;40.40;100264.92;104534;1308;71706;-82
2022/09/12 08:47:15;;;;;;;;;;;;;;;25.21;40.46;100264.83;104333;1308;74670;-82
2022/09/12 08:49:43;;;;;;;;;;;;;;;25.25;40.34;100264.26;104306;1308;60268;-82
2022/09/12 08:52:13;;;;;;;;;;;;;;;25.27;40.18;100265.70;103989;1309;61238;-81
2022/09/12 08:54:38;;;;;;;;;;;;;;;25.26;40.20;100261.24;104251;1309;74911;-82
2022/09/12 08:57:04;;;;;;;;;;;;;;;25.27;40.05;100262.09;104169;1309;61378;-81
2022/09/12 08:59:36;;;;;;;;;;;;;;;25.29;40.20;100258.63;104082;1309;59427;-81
2022/09/12 09:02:03;;;;;;;;;;;;;;;25.35;40.25;100255.94;105067;1308;60336;-82
2022/09/12 09:04:46;;;;;;;;;;;;;;;25.38;40.52;100252.92;104765;1308;64120;-81
2022/09/12 09:07:32;;;;;;;;;;;;;;;25.43;40.48;100251.77;104811;1308;67022;-81
2022/09/12 09:10:06;;;;;;;;;;;;;;;25.46;40.46;100247.82;104286;1309;60349;-80
2022/09/12 09:12:35;;;;;;;;;;;;;;;25.46;40.36;100249.48;104300;1308;61228;-82
2022/09/12 09:15:04;;;;;;;;;;;;;;;25.45;40.25;100249.41;104356;1308;72787;-81
2022/09/12 09:17:29;;;;;;;;;;;;;;;25.45;40.21;100252.25;104259;1309;74628;-82
2022/09/12 09:19:57;;;;;;;;;;;;;;;25.45;40.05;100256.24;104377;1309;61298;-80
2022/09/12 09:22:34;;;;;;;;;;;;;;;25.46;40.04;100254.88;104393;1309;60879;-81
2022/09/12 09:25:01;;;;;;;;;;;;;;;25.45;40.03;100249.00;104343;1309;72611;-82
2022/09/12 09:27:32;;;;;;;;;;;;;;;25.43;39.71;100244.16;104172;1309;77634;-82
2022/09/12 09:29:58;;;;;;;;;;;;;;;25.33;39.54;100242.94;104294;1311;60599;-81
2022/09/12 09:32:28;;;;;;;;;;;;;;;25.21;39.24;100241.81;104457;1308;61333;-81
2022/09/12 09:34:54;;;;;;;;;;;;;;;25.18;39.44;100243.67;104325;1309;72884;-81
2022/09/12 09:37:22;;;;;;;;;;;;;;;25.20;39.32;100243.49;104469;1309;61275;-81
2022/09/12 09:39:53;;;;;;;;;;;;;;;25.22;39.42;100243.42;104458;1309;61284;-82
2022/09/12 09:42:18;;;;;;;;;;;;;;;25.23;39.31;100240.66;104381;1308;61170;-81
2022/09/12 09:44:46;;;;;;;;;;;;;;;25.24;39.12;100238.25;104485;1309;61345;-82
2022/09/12 09:47:11;;;;;;;;;;;;;;;25.25;39.20;100235.93;104299;1309;61217;-82
2022/09/12 09:49:37;;;;;;;;;;;;;;;25.27;39.13;100236.66;104455;1309;63385;-82
2022/09/12 09:52:02;;;;;;;;;;;;;;;25.28;39.13;100234.81;104409;1309;61367;-81
2022/09/12 09:54:30;;;;;;;;;;;;;;;25.30;39.21;100232.98;104310;1309;59447;-82
2022/09/12 09:56:55;;;;;;;;;;;;;;;25.32;38.96;100229.75;104410;1309;61327;-82
2022/09/12 09:59:25;;;;;;;;;;;;;;;25.32;39.02;100227.91;104316;1310;61339;-82
2022/09/12 10:01:53;;;;;;;;;;;;;;;25.34;39.06;100225.75;103037;1309;1711312;-82
2022/09/12 10:04:23;;;;;;;;;;;;;;;25.35;39.08;100225.67;104301;1309;72825;-82
2022/09/12 10:06:53;;;;;;;;;;;;;;;25.35;39.10;100224.83;104320;1309;75416;-83
2022/09/12 10:09:22;;;;;;;;;;;;;;;25.34;38.89;100220.04;103853;1309;61690;-82
2022/09/12 10:11:48;;;;;;;;;;;;;;;25.34;39.02;100225.73;104245;1309;61529;-82
2022/09/12 10:14:29;;;;;;;;;;;;;;;25.36;39.22;100222.17;103715;1307;61132;-82
2022/09/12 10:16:56;;;;;;;;;;;;;;;25.37;39.02;100216.98;104487;1309;75113;-82
2022/09/12 10:19:42;;;;;;;;;;;;;;;25.40;39.01;100215.67;104291;1309;61473;-82
2022/09/12 10:22:12;;;;;;;;;;;;;;;25.41;38.93;100211.59;103924;1309;61579;-82
2022/09/12 10:24:40;;;;;;;;;;;;;;;25.43;38.91;100217.36;104425;1309;73479;-82
2022/09/12 10:27:12;;;;;;;;;;;;;;;25.44;38.76;100209.13;104386;1309;74776;-82
2022/09/12 10:29:44;;;;;;;;;;;;;;;25.45;38.76;100204.52;104431;1309;61321;-81
2022/09/12 10:32:11;;;;;;;;;;;;;;;25.45;38.57;100205.58;104431;1308;61053;-82
2022/09/12 10:34:40;;;;;;;;;;;;;;;25.44;38.43;100201.92;104312;1309;71949;-81
2022/09/12 10:37:24;;;;;;;;;;;;;;;25.42;38.23;100198.13;104385;1309;74712;-81
2022/09/12 10:39:55;;;;;;;;;;;;;;;25.42;38.23;100203.34;104292;1309;61278;-83
2022/09/12 10:42:39;;;;;;;;;;;;;;;25.43;38.34;100200.34;104367;1309;62170;-82
2022/09/12 10:45:12;;;;;;;;;;;;;;;25.45;38.30;100201.69;104230;1309;72735;-83
2022/09/12 10:47:37;;;;;;;;;;;;;;;25.45;38.36;100197.31;104419;1309;74579;-83
2022/09/12 10:50:17;;;;;;;;;;;;;;;25.47;38.33;100194.29;104341;1309;61471;-82
2022/09/12 10:52:43;;;;;;;;;;;;;;;25.46;38.09;100190.56;104244;1310;61362;-81
2022/09/12 10:55:22;;;;;;;;;;;;;;;25.46;38.13;100193.63;104240;1309;61378;-82
2022/09/12 10:57:53;;;;;;;;;;;;;;;25.46;37.90;100191.09;105049;1308;75686;-83
2022/09/12 11:00:26;;;;;;;;;;;;;;;25.45;37.73;100191.95;105013;1309;59465;-82
2022/09/12 11:03:12;;;;;;;;;;;;;;;25.43;37.64;100192.60;105018;1309;61788;-83
2022/09/12 11:05:40;;;;;;;;;;;;;;;25.44;37.65;100193.12;105148;1308;64185;-83
2022/09/12 11:08:11;;;;;;;;;;;;;;;25.45;37.61;100190.30;105188;1308;75070;-81
2022/09/12 11:10:37;;;;;;;;;;;;;;;25.46;37.76;100189.67;105042;1309;60157;-82
2022/09/12 11:13:21;;;;;;;;;;;;;;;25.47;37.65;100187.23;105035;1309;59259;-81
2022/09/12 11:16:08;;;;;;;;;;;;;;;25.47;37.64;100189.70;105190;1309;64557;-81
2022/09/12 11:18:52;;;;;;;;;;;;;;;25.48;37.53;100189.84;105130;1309;75048;-81
2022/09/12 11:21:38;;;;;;;;;;;;;;;25.45;37.48;100180.92;105149;1308;59754;-82
2022/09/12 11:24:06;;;;;;;;;;;;;;;25.43;37.45;100180.04;105300;1309;59243;-82
2022/09/12 11:26:41;;;;;;;;;;;;;;;25.41;37.22;100183.42;105205;1308;72820;-81
2022/09/12 11:29:26;;;;;;;;;;;;;;;25.39;37.13;100176.81;105260;1308;67009;-82
2022/09/12 11:31:52;;;;;;;;;;;;;;;25.38;36.98;100176.55;105233;1308;59324;-80
2022/09/12 11:34:31;;;;;;;;;;;;;;;25.38;36.90;100172.95;104481;1308;61278;-81
2022/09/12 11:36:57;;;;;;;;;;;;;;;25.37;36.68;100169.54;104457;1309;73108;-81
2022/09/12 11:39:23;;;;;;;;;;;;;;;25.36;36.47;100168.18;104343;1308;61278;-81
2022/09/12 11:41:49;;;;;;;;;;;;;;;25.35;36.51;100165.52;104224;1309;59883;-82
2022/09/12 11:44:15;;;;;;;;;;;;;;;25.35;36.28;100163.36;104246;1309;59563;-80
2022/09/12 11:46:43;;;;;;;;;;;;;;;25.37;36.29;100163.55;104412;1308;61309;-80
2022/09/12 11:49:12;;;;;;;;;;;;;;;25.38;36.33;100161.06;104374;1307;61244;-83
2022/09/12 11:51:43;;;;;;;;;;;;;;;25.40;36.34;100158.55;104200;1308;61178;-82
2022/09/12 11:54:12;;;;;;;;;;;;;;;25.40;36.25;100156.70;104327;1308;61294;-82
2022/09/12 11:56:39;;;;;;;;;;;;;;;25.41;36.18;100151.57;104378;1308;73909;-81
2022/09/12 11:59:08;;;;;;;;;;;;;;;25.42;36.26;100151.34;104424;1308;75694;-82
2022/09/12 12:01:35;;;;;;;;;;;;;;;25.41;36.06;100146.88;104352;1308;61138;-81
2022/09/12 12:04:00;;;;;;;;;;;;;;;25.40;35.94;100146.06;104875;1309;61236;-81
2022/09/12 12:06:29;;;;;;;;;;;;;;;25.41;36.01;100147.77;104349;1309;61467;-82
2022/09/12 12:08:55;;;;;;;;;;;;;;;25.42;35.97;100143.89;104249;1308;74651;-82
2022/09/12 12:11:25;;;;;;;;;;;;;;;25.45;35.99;100144.58;104192;1308;61320;-81
2022/09/12 12:13:52;;;;;;;;;;;;;;;25.45;35.91;100142.95;104423;1309;61768;-81
2022/09/12 12:16:22;;;;;;;;;;;;;;;25.45;35.75;100138.80;104241;1309;73143;-81
2022/09/12 12:18:52;;;;;;;;;;;;;;;25.45;35.98;100136.91;104369;1309;76403;-80
2022/09/12 12:21:41;;;;;;;;;;;;;;;25.47;36.00;100136.09;104412;1309;61395;-80
2022/09/12 12:24:29;;;;;;;;;;;;;;;25.48;35.91;100136.33;104319;1308;61451;-81
2022/09/12 12:26:58;;;;;;;;;;;;;;;25.49;35.95;100139.23;103839;1316;73827;-80
2022/09/12 12:29:31;;;;;;;;;;;;;;;25.51;36.11;100135.98;104644;1317;74874;-80
2022/09/12 12:32:02;;;;;;;;;;;;;;;25.53;36.24;100140.14;104617;1317;59709;-80
2022/09/12 12:34:29;;;;;;;;;;;;;;;25.54;36.24;100141.93;103723;1317;61188;-79